createdAt,value
2018-06-16T00:01:03.571Z,13.27
2018-06-16T00:03:32.097Z,13.24
2018-06-16T00:06:01.102Z,13.20
2018-06-16T00:08:29.711Z,13.16
2018-06-16T00:10:58.272Z,13.15
2018-06-16T00:13:26.798Z,13.11
2018-06-16T00:15:55.461Z,13.04
2018-06-16T00:18:23.995Z,12.91
2018-06-16T00:20:52.561Z,12.79
2018-06-16T00:23:21.163Z,12.74
2018-06-16T00:25:49.834Z,12.64
2018-06-16T00:28:18.460Z,12.57
2018-06-16T00:30:47.066Z,12.51
2018-06-16T00:33:15.616Z,12.48
2018-06-16T00:35:44.157Z,12.45
2018-06-16T00:38:12.750Z,12.38
2018-06-16T00:40:41.382Z,12.36
2018-06-16T00:43:09.947Z,12.34
2018-06-16T00:45:38.473Z,12.33
2018-06-16T00:48:07.246Z,12.32
2018-06-16T00:50:35.885Z,12.31
2018-06-16T00:53:04.441Z,12.34
2018-06-16T00:55:32.992Z,12.38
2018-06-16T00:58:01.558Z,12.44
2018-06-16T01:00:30.165Z,12.49
2018-06-16T01:02:58.766Z,12.52
2018-06-16T01:05:27.332Z,12.50
2018-06-16T01:07:55.858Z,12.45
2018-06-16T01:10:24.386Z,12.37
2018-06-16T01:12:52.915Z,12.36
2018-06-16T01:15:21.443Z,12.36
2018-06-16T01:17:50.038Z,12.32
2018-06-16T01:20:18.608Z,12.31
2018-06-16T01:22:47.270Z,12.32
2018-06-16T01:25:15.871Z,12.33
2018-06-16T01:27:44.407Z,12.29
2018-06-16T01:30:12.989Z,12.14
2018-06-16T01:32:41.558Z,12.07
2018-06-16T01:35:10.128Z,12.03
2018-06-16T01:37:38.706Z,11.93
2018-06-16T01:40:07.250Z,11.92
2018-06-16T01:42:35.762Z,11.94
2018-06-16T01:45:04.453Z,11.91
2018-06-16T01:47:33.011Z,11.87
2018-06-16T01:50:01.557Z,11.80
2018-06-16T01:52:30.134Z,11.72
2018-06-16T01:54:58.721Z,11.70
2018-06-16T01:57:27.322Z,11.67
2018-06-16T01:59:55.865Z,11.63
2018-06-16T02:02:24.400Z,11.64
2018-06-16T02:04:52.945Z,11.64
2018-06-16T02:07:21.534Z,11.65
2018-06-16T02:09:50.078Z,11.61
2018-06-16T02:12:18.624Z,11.64
2018-06-16T02:14:47.134Z,11.66
2018-06-16T02:17:15.701Z,11.66
2018-06-16T02:19:44.273Z,11.65
2018-06-16T02:22:12.794Z,11.69
2018-06-16T02:24:41.438Z,11.68
2018-06-16T02:27:09.993Z,11.64
2018-06-16T02:29:38.577Z,11.57
2018-06-16T02:32:07.254Z,11.51
2018-06-16T02:34:35.798Z,11.50
2018-06-16T02:37:04.435Z,11.57
2018-06-16T02:39:33.118Z,11.62
2018-06-16T02:42:01.667Z,11.68
2018-06-16T02:44:30.252Z,11.74
2018-06-16T02:46:58.830Z,11.79
2018-06-16T02:49:27.359Z,11.84
2018-06-16T02:51:55.939Z,11.87
2018-06-16T02:54:24.544Z,11.89
2018-06-16T02:56:53.244Z,11.92
2018-06-16T02:59:21.774Z,11.94
2018-06-16T03:01:50.331Z,11.96
2018-06-16T03:04:18.902Z,11.98
2018-06-16T03:06:47.470Z,12.01
2018-06-16T03:09:16.110Z,12.05
2018-06-16T03:11:44.738Z,12.08
2018-06-16T03:14:13.310Z,12.03
2018-06-16T03:16:41.881Z,12.03
2018-06-16T03:19:10.480Z,12.10
2018-06-16T03:21:39.048Z,12.12
2018-06-16T03:24:07.606Z,12.14
2018-06-16T03:26:36.154Z,12.28
2018-06-16T03:29:04.702Z,12.45
2018-06-16T03:31:33.291Z,12.63
2018-06-16T03:34:01.854Z,12.85
2018-06-16T03:36:30.397Z,13.10
2018-06-16T03:38:58.980Z,13.29
2018-06-16T03:41:27.514Z,13.43
2018-06-16T03:43:56.120Z,13.59
2018-06-16T03:46:24.669Z,13.73
2018-06-16T03:48:53.234Z,13.96
2018-06-16T03:51:21.818Z,14.22
2018-06-16T03:53:50.374Z,14.50
2018-06-16T03:56:18.966Z,14.75
2018-06-16T03:58:47.503Z,15.02
2018-06-16T04:01:16.141Z,15.12
2018-06-16T04:03:44.657Z,15.27
2018-06-16T04:06:13.177Z,15.46
2018-06-16T04:08:41.761Z,15.95
2018-06-16T04:11:10.291Z,16.34
2018-06-16T04:13:38.825Z,16.59
2018-06-16T04:16:07.374Z,16.86
2018-06-16T04:18:35.920Z,17.24
2018-06-16T04:21:04.544Z,17.53
2018-06-16T04:23:33.101Z,17.85
2018-06-16T04:26:01.646Z,18.15
2018-06-16T04:28:30.169Z,18.51
2018-06-16T04:30:59.018Z,18.88
2018-06-16T04:33:27.598Z,18.96
2018-06-16T04:35:56.249Z,19.52
2018-06-16T04:38:24.873Z,19.72
2018-06-16T04:40:55.162Z,19.92
2018-06-16T04:43:23.709Z,20.09
2018-06-16T04:45:52.459Z,17.38
2018-06-16T04:48:21.066Z,20.96
2018-06-16T04:50:49.757Z,21.31
2018-06-16T04:53:18.416Z,21.64
2018-06-16T04:55:47.765Z,21.98
2018-06-16T04:58:16.609Z,22.23
2018-06-16T05:00:45.494Z,22.55
2018-06-16T05:03:14.252Z,22.91
2018-06-16T05:05:42.965Z,22.83
2018-06-16T05:08:11.580Z,22.67
2018-06-16T05:10:40.221Z,22.82
2018-06-16T05:13:09.269Z,23.15
2018-06-16T05:15:38.039Z,23.70
2018-06-16T05:18:06.858Z,23.58
2018-06-16T05:20:35.563Z,23.84
2018-06-16T05:23:04.273Z,23.88
2018-06-16T05:25:32.874Z,23.69
2018-06-16T05:28:01.510Z,24.16
2018-06-16T05:30:30.328Z,25.13
2018-06-16T05:32:59.153Z,25.79
2018-06-16T05:36:30.790Z,25.61
2018-06-16T05:38:59.502Z,26.07
2018-06-16T05:41:28.149Z,25.98
2018-06-16T05:43:56.913Z,25.99
2018-06-16T05:46:25.864Z,24.66
2018-06-16T05:48:55.582Z,23.86
2018-06-16T05:51:24.576Z,23.76
2018-06-16T05:53:53.448Z,23.57
2018-06-16T05:56:22.080Z,23.63
2018-06-16T05:58:50.740Z,23.65
2018-06-16T06:01:19.398Z,23.62
2018-06-16T06:03:48.157Z,23.94
2018-06-16T06:06:16.808Z,25.32
2018-06-16T06:08:45.405Z,26.41
2018-06-16T06:11:13.952Z,27.14
2018-06-16T06:13:42.561Z,27.72
2018-06-16T06:16:11.192Z,28.02
2018-06-16T06:18:40.049Z,28.24
2018-06-16T06:21:08.911Z,28.80
2018-06-16T06:23:37.591Z,28.99
2018-06-16T06:26:06.326Z,28.77
2018-06-16T06:28:35.010Z,29.17
2018-06-16T06:31:03.694Z,29.54
2018-06-16T06:33:32.506Z,29.64
2018-06-16T06:36:01.254Z,30.34
2018-06-16T06:38:30.074Z,30.66
2018-06-16T06:40:58.831Z,31.31
2018-06-16T06:43:27.725Z,30.94
2018-06-16T06:45:56.333Z,31.66
2018-06-16T06:48:25.085Z,32.60
2018-06-16T06:50:53.884Z,32.17
2018-06-16T06:53:22.522Z,32.57
2018-06-16T06:55:51.206Z,31.79
2018-06-16T06:58:19.993Z,33.31
2018-06-16T07:00:48.976Z,34.37
2018-06-16T07:03:17.578Z,33.79
2018-06-16T07:05:46.290Z,32.91
2018-06-16T07:08:15.255Z,32.92
2018-06-16T07:10:43.892Z,34.45
2018-06-16T07:13:12.634Z,36.06
2018-06-16T07:15:41.353Z,32.93
2018-06-16T07:18:10.128Z,33.55
2018-06-16T07:20:38.869Z,33.71
2018-06-16T07:23:07.722Z,33.92
2018-06-16T07:25:36.407Z,33.34
2018-06-16T07:28:05.100Z,33.62
2018-06-16T07:30:34.349Z,34.51
2018-06-16T07:33:03.070Z,34.66
2018-06-16T07:35:31.808Z,35.35
2018-06-16T07:38:00.481Z,34.40
2018-06-16T07:40:29.177Z,33.48
2018-06-16T07:42:57.949Z,33.39
2018-06-16T07:45:26.787Z,34.20
2018-06-16T07:47:55.499Z,34.02
2018-06-16T07:50:24.283Z,34.16
2018-06-16T07:52:53.045Z,35.54
2018-06-16T07:55:21.677Z,36.79
2018-06-16T07:57:50.325Z,37.45
2018-06-16T08:00:19.075Z,36.68
2018-06-16T08:02:47.930Z,37.06
2018-06-16T08:05:16.737Z,38.20
2018-06-16T08:07:46.120Z,38.09
2018-06-16T08:10:14.963Z,37.25
2018-06-16T08:12:43.780Z,38.17
2018-06-16T08:15:12.554Z,37.29
2018-06-16T08:17:41.468Z,36.74
2018-06-16T08:20:10.414Z,37.13
2018-06-16T08:22:39.233Z,38.11
2018-06-16T08:25:08.105Z,38.50
2018-06-16T08:27:36.880Z,39.33
2018-06-16T08:30:05.463Z,36.86
2018-06-16T08:32:34.017Z,36.19
2018-06-16T08:35:02.548Z,37.65
2018-06-16T08:37:31.069Z,36.48
2018-06-16T08:39:59.540Z,34.83
2018-06-16T08:42:28.212Z,37.57
2018-06-16T08:44:56.761Z,36.83
2018-06-16T08:47:25.408Z,35.57
2018-06-16T08:49:53.991Z,34.85
2018-06-16T08:52:22.548Z,36.44
2018-06-16T08:54:51.163Z,38.09
2018-06-16T08:57:19.760Z,38.40
2018-06-16T08:59:48.273Z,36.59
2018-06-16T09:02:16.773Z,35.39
2018-06-16T09:04:45.353Z,35.50
2018-06-16T09:07:13.863Z,34.87
2018-06-16T09:09:42.513Z,37.38
2018-06-16T09:12:11.153Z,37.91
2018-06-16T09:14:39.693Z,36.67
2018-06-16T09:17:08.240Z,38.06
2018-06-16T09:19:36.787Z,35.86
2018-06-16T09:22:05.320Z,36.78
2018-06-16T09:24:33.817Z,36.27
2018-06-16T09:27:02.398Z,37.41
2018-06-16T09:29:30.960Z,38.19
2018-06-16T09:31:59.496Z,36.17
2018-06-16T09:34:28.103Z,36.49
2018-06-16T09:36:56.670Z,37.84
2018-06-16T09:39:25.188Z,38.76
2018-06-16T09:41:54.382Z,38.74
2018-06-16T09:44:23.978Z,36.37
2018-06-16T09:46:52.528Z,35.51
2018-06-16T09:49:21.093Z,33.94
2018-06-16T09:51:49.895Z,32.90
2018-06-16T09:54:18.558Z,32.13
2018-06-16T09:56:47.139Z,32.43
2018-06-16T09:59:15.656Z,34.53
2018-06-16T10:01:44.194Z,36.42
2018-06-16T10:04:12.779Z,36.58
2018-06-16T10:06:41.309Z,37.36
2018-06-16T10:09:10.529Z,38.62
2018-06-16T10:11:39.179Z,36.72
2018-06-16T10:14:07.770Z,34.51
2018-06-16T10:16:36.275Z,33.18
2018-06-16T10:19:04.806Z,31.39
2018-06-16T10:21:33.333Z,28.90
2018-06-16T10:24:01.844Z,28.35
2018-06-16T10:26:30.401Z,33.63
2018-06-16T10:28:59.009Z,32.45
2018-06-16T10:31:27.512Z,32.44
2018-06-16T10:33:56.051Z,34.77
2018-06-16T10:36:24.595Z,34.29
2018-06-16T10:38:53.102Z,34.08
2018-06-16T10:41:21.626Z,35.72
2018-06-16T10:43:50.167Z,33.76
2018-06-16T10:46:18.676Z,33.57
2018-06-16T10:48:47.240Z,34.69
2018-06-16T10:51:15.768Z,33.97
2018-06-16T10:53:44.376Z,33.04
2018-06-16T10:56:12.957Z,32.71
2018-06-16T10:58:41.507Z,32.78
2018-06-16T11:01:10.088Z,32.29
2018-06-16T11:03:38.636Z,33.09
2018-06-16T11:06:07.146Z,32.82
2018-06-16T11:08:35.632Z,34.92
2018-06-16T11:11:04.203Z,35.80
2018-06-16T11:13:32.724Z,33.06
2018-06-16T11:16:01.238Z,31.57
2018-06-16T11:18:29.781Z,32.50
2018-06-16T11:20:58.335Z,29.97
2018-06-16T11:23:26.986Z,29.35
2018-06-16T11:25:55.520Z,29.76
2018-06-16T11:28:24.040Z,28.39
2018-06-16T11:30:52.588Z,28.52
2018-06-16T11:33:21.173Z,29.08
2018-06-16T11:35:49.697Z,29.75
2018-06-16T11:38:18.383Z,28.71
2018-06-16T11:40:47.292Z,28.89
2018-06-16T11:43:16.339Z,29.35
2018-06-16T11:45:44.854Z,29.67
2018-06-16T11:48:13.514Z,28.56
2018-06-16T11:50:42.086Z,27.18
2018-06-16T11:53:10.593Z,26.45
2018-06-16T11:55:39.130Z,26.62
2018-06-16T11:58:07.638Z,26.16
2018-06-16T12:00:36.144Z,26.41
2018-06-16T12:03:04.738Z,26.47
2018-06-16T12:05:33.274Z,26.22
2018-06-16T12:08:01.850Z,26.39
2018-06-16T12:10:30.398Z,26.09
2018-06-16T12:12:58.980Z,26.42
2018-06-16T12:15:27.615Z,26.79
2018-06-16T12:17:56.155Z,26.49
2018-06-16T12:20:24.674Z,26.16
2018-06-16T12:22:53.237Z,26.15
2018-06-16T12:25:21.897Z,26.29
2018-06-16T12:27:50.532Z,26.64
2018-06-16T12:30:19.045Z,26.51
2018-06-16T12:32:47.589Z,26.45
2018-06-16T12:35:16.111Z,26.33
2018-06-16T12:37:44.621Z,26.05
2018-06-16T12:40:13.162Z,25.93
2018-06-16T12:42:41.803Z,26.45
2018-06-16T12:45:10.411Z,26.82
2018-06-16T12:47:38.997Z,26.57
2018-06-16T12:50:07.765Z,26.37
2018-06-16T12:52:36.289Z,25.87
2018-06-16T12:55:04.817Z,25.83
2018-06-16T12:57:33.457Z,26.14
2018-06-16T13:00:01.974Z,26.28
2018-06-16T13:02:30.520Z,26.27
2018-06-16T13:04:59.061Z,26.07
2018-06-16T13:07:27.658Z,25.88
2018-06-16T13:09:56.217Z,25.99
2018-06-16T13:12:24.781Z,26.09
2018-06-16T13:14:53.332Z,26.01
2018-06-16T13:17:21.884Z,26.25
2018-06-16T13:19:50.565Z,26.70
2018-06-16T13:22:19.085Z,26.23
2018-06-16T13:24:47.648Z,26.00
2018-06-16T13:27:16.170Z,25.87
2018-06-16T13:29:44.714Z,25.95
2018-06-16T13:32:13.331Z,26.30
2018-06-16T13:34:42.173Z,26.50
2018-06-16T13:37:10.683Z,26.08
2018-06-16T13:39:39.247Z,26.01
2018-06-16T13:42:07.867Z,26.24
2018-06-16T13:44:36.385Z,26.35
2018-06-16T13:47:05.272Z,26.46
2018-06-16T13:49:33.813Z,26.02
2018-06-16T13:52:02.516Z,26.36
2018-06-16T13:54:31.079Z,26.71
2018-06-16T13:56:59.821Z,26.71
2018-06-16T13:59:28.447Z,26.69
2018-06-16T14:01:56.964Z,26.39
2018-06-16T14:04:25.515Z,26.23
2018-06-16T14:06:54.283Z,26.04
2018-06-16T14:09:22.857Z,26.10
2018-06-16T14:11:51.375Z,26.05
2018-06-16T14:14:20.026Z,26.46
2018-06-16T14:16:48.601Z,26.79
2018-06-16T14:19:17.127Z,26.81
2018-06-16T14:21:45.703Z,26.60
2018-06-16T14:24:14.265Z,26.41
2018-06-16T14:26:42.787Z,26.46
2018-06-16T14:29:11.304Z,26.02
2018-06-16T14:31:39.894Z,25.92
2018-06-16T14:34:08.439Z,25.71
2018-06-16T14:36:37.025Z,25.94
2018-06-16T14:39:07.398Z,25.75
2018-06-16T14:41:35.932Z,25.77
2018-06-16T14:44:04.470Z,25.77
2018-06-16T14:46:33.013Z,25.91
2018-06-16T14:49:01.538Z,26.19
2018-06-16T14:51:30.176Z,26.42
2018-06-16T14:53:58.760Z,26.58
2018-06-16T14:56:27.397Z,26.69
2018-06-16T14:58:55.893Z,26.60
2018-06-16T15:01:24.476Z,26.49
2018-06-16T15:03:53.014Z,26.30
2018-06-16T15:06:21.629Z,26.28
2018-06-16T15:08:50.257Z,26.41
2018-06-16T15:11:18.858Z,26.03
2018-06-16T15:13:47.373Z,26.01
2018-06-16T15:16:15.908Z,25.92
2018-06-16T15:18:44.418Z,25.83
2018-06-16T15:21:13.126Z,25.98
2018-06-16T15:23:41.744Z,25.95
2018-06-16T15:26:10.321Z,25.86
2018-06-16T15:28:39.080Z,25.60
2018-06-16T15:31:07.680Z,25.44
2018-06-16T15:33:36.290Z,25.51
2018-06-16T15:36:04.862Z,25.64
2018-06-16T15:38:33.384Z,25.50
2018-06-16T15:41:01.995Z,25.29
2018-06-16T15:43:30.543Z,25.28
2018-06-16T15:45:59.353Z,25.29
2018-06-16T15:48:27.880Z,25.18
2018-06-16T15:50:56.405Z,25.06
2018-06-16T15:53:24.967Z,25.00
2018-06-16T15:55:53.592Z,24.82
2018-06-16T15:58:22.132Z,24.73
2018-06-16T16:00:50.709Z,24.65
2018-06-16T16:03:19.223Z,24.58
2018-06-16T16:05:47.789Z,24.52
2018-06-16T16:08:16.296Z,24.48
2018-06-16T16:10:44.878Z,24.47
2018-06-16T16:13:13.405Z,24.54
2018-06-16T16:15:41.951Z,24.65
2018-06-16T16:18:10.465Z,24.68
2018-06-16T16:20:38.997Z,24.78
2018-06-16T16:23:07.665Z,24.71
2018-06-16T16:25:36.197Z,24.63
2018-06-16T16:28:04.741Z,24.48
2018-06-16T16:30:33.506Z,24.44
2018-06-16T16:33:02.068Z,24.39
2018-06-16T16:35:30.604Z,24.21
2018-06-16T16:37:59.161Z,24.16
2018-06-16T16:40:27.668Z,24.21
2018-06-16T16:42:56.173Z,24.22
2018-06-16T16:45:24.737Z,24.21
2018-06-16T16:47:53.265Z,24.27
2018-06-16T16:50:21.823Z,24.30
2018-06-16T16:52:50.374Z,24.30
2018-06-16T16:55:18.901Z,24.27
2018-06-16T16:57:47.450Z,24.41
2018-06-16T17:00:16.033Z,24.49
2018-06-16T17:02:44.554Z,24.50
2018-06-16T17:05:13.073Z,24.58
2018-06-16T17:07:41.677Z,24.61
2018-06-16T17:10:10.227Z,24.53
2018-06-16T17:12:39.293Z,24.51
2018-06-16T17:15:07.846Z,24.46
2018-06-16T17:17:36.383Z,24.46
2018-06-16T17:20:05.074Z,24.40
2018-06-16T17:22:33.669Z,24.38
2018-06-16T17:25:02.200Z,24.39
2018-06-16T17:27:30.728Z,24.38
2018-06-16T17:29:59.354Z,24.36
2018-06-16T17:32:27.888Z,24.31
2018-06-16T17:34:56.416Z,24.21
2018-06-16T17:37:24.991Z,24.15
2018-06-16T17:39:53.538Z,24.11
2018-06-16T17:42:22.043Z,24.04
2018-06-16T17:44:50.613Z,23.92
2018-06-16T17:47:19.192Z,23.86
2018-06-16T17:49:47.705Z,23.83
2018-06-16T17:52:16.298Z,23.80
2018-06-16T17:54:44.869Z,23.75
2018-06-16T17:57:13.394Z,23.65
2018-06-16T17:59:42.025Z,23.60
2018-06-16T18:02:10.557Z,23.52
2018-06-16T18:04:39.172Z,23.38
2018-06-16T18:07:07.738Z,23.25
2018-06-16T18:09:36.245Z,23.14
2018-06-16T18:12:04.875Z,23.00
2018-06-16T18:14:33.438Z,22.89
2018-06-16T18:17:01.996Z,22.80
2018-06-16T18:19:30.538Z,22.72
2018-06-16T18:21:59.057Z,22.62
2018-06-16T18:24:27.633Z,22.57
2018-06-16T18:26:56.169Z,22.53
2018-06-16T18:29:24.729Z,22.47
2018-06-16T18:31:53.232Z,22.39
2018-06-16T18:34:21.822Z,22.35
2018-06-16T18:36:50.381Z,22.25
2018-06-16T18:39:18.889Z,22.19
2018-06-16T18:41:47.389Z,22.15
2018-06-16T18:44:15.932Z,22.08
2018-06-16T18:46:44.440Z,22.00
2018-06-16T18:49:12.989Z,21.94
2018-06-16T18:51:41.542Z,21.88
2018-06-16T18:54:10.046Z,21.83
2018-06-16T18:56:38.546Z,21.71
2018-06-16T18:59:07.117Z,21.60
2018-06-16T19:01:35.645Z,21.51
2018-06-16T19:04:04.223Z,21.43
2018-06-16T19:06:32.771Z,21.36
2018-06-16T19:09:01.290Z,21.28
2018-06-16T19:11:29.849Z,21.19
2018-06-16T19:13:58.365Z,21.14
2018-06-16T19:16:26.849Z,21.06
2018-06-16T19:18:55.334Z,21.02
2018-06-16T19:21:23.856Z,20.98
2018-06-16T19:23:52.352Z,20.94
2018-06-16T19:26:20.870Z,20.85
2018-06-16T19:28:49.492Z,20.74
2018-06-16T19:31:18.013Z,20.64
2018-06-16T19:33:47.507Z,20.51
2018-06-16T19:36:16.043Z,20.38
2018-06-16T19:38:44.550Z,20.34
2018-06-16T19:41:13.029Z,20.28
2018-06-16T19:43:41.577Z,20.19
2018-06-16T19:46:10.076Z,20.11
2018-06-16T19:48:38.568Z,20.05
2018-06-16T19:51:07.179Z,19.98
2018-06-16T19:53:35.842Z,19.91
2018-06-16T19:56:04.402Z,19.88
2018-06-16T19:58:33.110Z,19.84
2018-06-16T20:01:01.709Z,19.84
2018-06-16T20:03:30.242Z,19.78
2018-06-16T20:05:59.226Z,19.70
2018-06-16T20:08:27.780Z,19.66
2018-06-16T20:10:56.355Z,19.66
2018-06-16T20:13:24.955Z,19.63
2018-06-16T20:15:53.609Z,19.60
2018-06-16T20:18:22.154Z,19.52
2018-06-16T20:20:50.713Z,19.43
2018-06-16T20:23:19.226Z,19.39
2018-06-16T20:25:47.771Z,19.34
2018-06-16T20:28:16.322Z,19.30
2018-06-16T20:30:44.863Z,19.26
2018-06-16T20:33:13.356Z,19.20
2018-06-16T20:35:41.990Z,19.09
2018-06-16T20:38:10.492Z,18.96
2018-06-16T20:40:39.068Z,18.86
2018-06-16T20:43:08.313Z,18.79
2018-06-16T20:45:36.965Z,18.72
2018-06-16T20:48:05.514Z,18.65
2018-06-16T20:50:34.092Z,18.60
2018-06-16T20:53:02.716Z,18.51
2018-06-16T20:55:31.387Z,18.48
2018-06-16T20:57:59.925Z,18.44
2018-06-16T21:00:28.534Z,18.36
2018-06-16T21:02:57.122Z,18.26
2018-06-16T21:05:26.626Z,18.21
2018-06-16T21:07:55.154Z,18.17
2018-06-16T21:10:23.668Z,18.17
2018-06-16T21:12:52.341Z,18.10
2018-06-16T21:15:20.962Z,18.06
2018-06-16T21:17:49.477Z,18.00
2018-06-16T21:20:18.062Z,17.94
2018-06-16T21:22:46.642Z,17.90
2018-06-16T21:25:15.246Z,17.83
2018-06-16T21:27:43.806Z,17.73
2018-06-16T21:30:13.183Z,17.67
2018-06-16T21:32:41.978Z,17.60
2018-06-16T21:35:10.554Z,17.59
2018-06-16T21:37:39.100Z,17.52
2018-06-16T21:40:07.681Z,17.50
2018-06-16T21:42:36.911Z,17.48
2018-06-16T21:45:06.122Z,17.43
2018-06-16T21:47:35.014Z,17.41
2018-06-16T21:50:04.002Z,17.37
2018-06-16T21:52:32.683Z,17.35
2018-06-16T21:55:01.473Z,17.28
2018-06-16T21:57:30.207Z,17.18
2018-06-16T21:59:59.141Z,17.17
2018-06-16T22:02:27.926Z,17.01
2018-06-16T22:04:56.632Z,16.90
2018-06-16T22:07:25.659Z,16.92
2018-06-16T22:09:54.461Z,16.82
2018-06-16T22:12:23.085Z,16.71
2018-06-16T22:14:51.835Z,16.58
2018-06-16T22:17:20.596Z,16.59
2018-06-16T22:19:49.334Z,16.62
2018-06-16T22:22:18.144Z,16.59
2018-06-16T22:24:46.965Z,16.50
2018-06-16T22:27:15.548Z,16.42
2018-06-16T22:29:44.341Z,16.45
2018-06-16T22:32:13.044Z,16.40
2018-06-16T22:34:41.721Z,16.38
2018-06-16T22:37:10.414Z,16.27
2018-06-16T22:39:39.108Z,16.12
2018-06-16T22:42:08.114Z,16.05
2018-06-16T22:44:37.134Z,15.97
2018-06-16T22:47:06.170Z,15.89
2018-06-16T22:49:34.873Z,15.88
2018-06-16T22:52:03.573Z,15.90
2018-06-16T22:54:32.302Z,15.85
2018-06-16T22:57:01.172Z,15.81
2018-06-16T22:59:29.860Z,15.76
2018-06-16T23:01:58.623Z,15.69
2018-06-16T23:04:27.270Z,15.71
2018-06-16T23:06:56.016Z,15.80
2018-06-16T23:09:24.888Z,15.66
2018-06-16T23:11:53.606Z,15.68
2018-06-16T23:14:22.343Z,15.57
2018-06-16T23:16:51.244Z,15.55
2018-06-16T23:19:20.151Z,15.48
2018-06-16T23:21:48.877Z,15.43
2018-06-16T23:24:17.815Z,15.38
2018-06-16T23:26:46.884Z,15.57
2018-06-16T23:29:15.553Z,15.49
2018-06-16T23:31:44.522Z,15.51
2018-06-16T23:34:13.599Z,15.48
2018-06-16T23:36:42.376Z,15.47
2018-06-16T23:39:12.640Z,15.75
2018-06-16T23:41:41.824Z,15.74
2018-06-16T23:44:10.629Z,15.54
2018-06-16T23:46:39.474Z,15.49
2018-06-16T23:49:08.048Z,15.48
2018-06-16T23:51:36.740Z,15.52
2018-06-16T23:54:06.841Z,15.54
2018-06-16T23:56:35.567Z,15.55
2018-06-16T23:59:04.591Z,15.55
